createdAt,value
2018-05-16T00:00:09.114Z,99.99
2018-05-16T00:01:09.103Z,99.99
2018-05-16T00:02:09.084Z,99.99
2018-05-16T00:03:09.069Z,99.99
2018-05-16T00:04:09.053Z,99.99
2018-05-16T00:05:09.045Z,99.99
2018-05-16T00:06:09.026Z,99.99
2018-05-16T00:07:09.007Z,99.99
2018-05-16T00:08:08.992Z,99.99
2018-05-16T00:09:08.977Z,99.99
2018-05-16T00:10:08.962Z,99.99
2018-05-16T00:11:08.948Z,99.99
2018-05-16T00:12:08.930Z,99.99
2018-05-16T00:13:08.921Z,99.99
2018-05-16T00:14:08.899Z,99.99
2018-05-16T00:15:08.885Z,99.99
2018-05-16T00:16:08.877Z,99.99
2018-05-16T00:17:08.853Z,99.99
2018-05-16T00:18:08.839Z,99.99
2018-05-16T00:19:08.825Z,99.99
2018-05-16T00:20:08.808Z,99.99
2018-05-16T00:21:08.794Z,99.99
2018-05-16T00:22:08.779Z,99.99
2018-05-16T00:23:08.767Z,99.99
2018-05-16T00:24:08.751Z,99.99
2018-05-16T00:25:08.747Z,99.99
2018-05-16T00:26:08.717Z,99.99
2018-05-16T00:27:08.702Z,99.99
2018-05-16T00:28:08.687Z,99.99
2018-05-16T00:29:08.672Z,99.99
2018-05-16T00:30:08.659Z,99.99
2018-05-16T00:31:08.643Z,99.99
2018-05-16T00:32:08.627Z,99.99
2018-05-16T00:33:08.614Z,99.99
2018-05-16T00:34:08.597Z,99.99
2018-05-16T00:35:08.582Z,99.99
2018-05-16T00:36:08.565Z,99.99
2018-05-16T00:37:08.550Z,99.99
2018-05-16T00:38:08.533Z,99.99
2018-05-16T00:39:08.520Z,99.99
2018-05-16T00:40:08.507Z,99.99
2018-05-16T00:41:08.492Z,99.99
2018-05-16T00:42:08.483Z,99.99
2018-05-16T00:43:08.462Z,99.99
2018-05-16T00:44:08.444Z,99.99
2018-05-16T00:45:08.428Z,99.99
2018-05-16T00:46:08.415Z,99.99
2018-05-16T00:47:08.400Z,99.99
2018-05-16T00:48:08.381Z,99.99
2018-05-16T00:49:08.372Z,99.99
2018-05-16T00:50:08.356Z,99.99
2018-05-16T00:51:08.338Z,99.99
2018-05-16T00:52:08.321Z,99.99
2018-05-16T00:53:08.307Z,99.99
2018-05-16T00:54:08.294Z,99.99
2018-05-16T00:55:08.276Z,99.99
2018-05-16T00:56:08.262Z,99.99
2018-05-16T00:57:08.246Z,99.99
2018-05-16T00:58:08.233Z,99.99
2018-05-16T00:59:08.221Z,99.99
2018-05-16T01:00:08.200Z,99.99
2018-05-16T01:01:08.183Z,99.99
2018-05-16T01:02:08.169Z,99.99
2018-05-16T01:03:08.158Z,99.99
2018-05-16T01:04:08.140Z,99.99
2018-05-16T01:05:08.123Z,99.99
2018-05-16T01:06:08.109Z,99.99
2018-05-16T01:07:08.092Z,99.99
2018-05-16T01:08:08.077Z,99.99
2018-05-16T01:09:08.061Z,99.99
2018-05-16T01:10:08.046Z,99.99
2018-05-16T01:11:08.031Z,99.99
2018-05-16T01:12:08.015Z,99.99
2018-05-16T01:13:08.000Z,99.99
2018-05-16T01:14:07.996Z,99.99
2018-05-16T01:15:07.968Z,99.99
2018-05-16T01:16:07.957Z,99.99
2018-05-16T01:17:07.937Z,99.99
2018-05-16T01:18:07.922Z,99.99
2018-05-16T01:19:07.912Z,99.99
2018-05-16T01:20:07.887Z,99.99
2018-05-16T01:21:07.879Z,99.99
2018-05-16T01:22:07.860Z,99.99
2018-05-16T01:23:07.848Z,99.99
2018-05-16T01:24:07.829Z,99.99
2018-05-16T01:25:07.812Z,99.99
2018-05-16T01:26:07.799Z,99.99
2018-05-16T01:27:07.788Z,99.99
2018-05-16T01:28:07.767Z,99.99
2018-05-16T01:29:07.750Z,99.99
2018-05-16T01:30:07.737Z,99.99
2018-05-16T01:31:07.721Z,99.99
2018-05-16T01:32:07.710Z,99.99
2018-05-16T01:33:07.691Z,99.99
2018-05-16T01:34:07.683Z,99.99
2018-05-16T01:35:07.670Z,99.99
2018-05-16T01:36:07.644Z,99.99
2018-05-16T01:37:07.628Z,99.99
2018-05-16T01:38:07.614Z,99.99
2018-05-16T01:39:07.598Z,99.99
2018-05-16T01:40:07.582Z,99.99
2018-05-16T01:41:07.567Z,99.99
2018-05-16T01:42:07.551Z,99.99
2018-05-16T01:43:07.539Z,99.99
2018-05-16T01:44:07.521Z,99.99
2018-05-16T01:45:07.505Z,99.99
2018-05-16T01:46:07.489Z,99.99
2018-05-16T01:47:07.477Z,99.99
2018-05-16T01:48:07.466Z,99.99
2018-05-16T01:49:07.445Z,99.99
2018-05-16T01:50:07.434Z,99.99
2018-05-16T01:51:07.417Z,99.99
2018-05-16T01:52:07.397Z,99.99
2018-05-16T01:53:07.383Z,99.99
2018-05-16T01:54:07.374Z,99.99
2018-05-16T01:55:07.351Z,99.99
2018-05-16T01:56:07.336Z,99.99
2018-05-16T01:57:07.322Z,99.99
2018-05-16T01:58:07.305Z,99.99
2018-05-16T01:59:07.369Z,99.99
2018-05-16T02:00:07.276Z,99.99
2018-05-16T02:01:07.261Z,99.99
2018-05-16T02:02:07.245Z,99.99
2018-05-16T02:03:07.230Z,99.99
2018-05-16T02:04:07.216Z,99.99
2018-05-16T02:05:07.201Z,99.99
2018-05-16T02:06:07.189Z,99.99
2018-05-16T02:07:07.171Z,99.99
2018-05-16T02:08:07.154Z,99.99
2018-05-16T02:09:07.138Z,99.99
2018-05-16T02:10:07.124Z,99.99
2018-05-16T02:11:07.119Z,99.99
2018-05-16T02:12:07.094Z,99.99
2018-05-16T02:13:07.080Z,99.99
2018-05-16T02:14:07.062Z,99.99
2018-05-16T02:15:07.049Z,99.99
2018-05-16T02:16:07.032Z,99.99
2018-05-16T02:17:07.017Z,99.99
2018-05-16T02:18:07.002Z,99.99
2018-05-16T02:19:06.991Z,99.99
2018-05-16T02:20:06.970Z,99.99
2018-05-16T02:21:06.957Z,99.99
2018-05-16T02:22:06.945Z,99.99
2018-05-16T02:23:06.931Z,99.99
2018-05-16T02:24:06.911Z,99.99
2018-05-16T02:25:06.895Z,99.99
2018-05-16T02:26:06.881Z,99.99
2018-05-16T02:27:06.876Z,99.99
2018-05-16T02:28:06.850Z,99.99
2018-05-16T02:29:06.835Z,99.99
2018-05-16T02:30:06.821Z,99.99
2018-05-16T02:31:06.803Z,99.99
2018-05-16T02:32:06.789Z,99.99
2018-05-16T02:33:06.773Z,99.99
2018-05-16T02:34:06.759Z,99.99
2018-05-16T02:35:06.758Z,99.99
2018-05-16T02:36:06.728Z,99.99
2018-05-16T02:37:06.713Z,99.99
2018-05-16T02:38:06.698Z,99.99
2018-05-16T02:39:06.688Z,99.99
2018-05-16T02:40:06.671Z,99.99
2018-05-16T02:41:06.654Z,99.99
2018-05-16T02:42:06.643Z,99.99
2018-05-16T02:43:06.625Z,99.99
2018-05-16T02:44:06.609Z,99.99
2018-05-16T02:45:06.593Z,99.99
2018-05-16T02:46:06.579Z,99.99
2018-05-16T02:47:06.565Z,99.99
2018-05-16T02:48:06.550Z,99.99
2018-05-16T02:49:06.532Z,99.99
2018-05-16T02:50:06.518Z,99.99
2018-05-16T02:51:06.510Z,99.99
2018-05-16T02:52:06.488Z,99.99
2018-05-16T02:53:06.476Z,99.99
2018-05-16T02:54:06.458Z,99.99
2018-05-16T02:55:06.441Z,99.99
2018-05-16T02:56:06.426Z,99.99
2018-05-16T02:57:06.417Z,99.99
2018-05-16T02:58:06.398Z,99.99
2018-05-16T02:59:06.381Z,99.99
2018-05-16T03:00:06.367Z,99.99
2018-05-16T03:01:06.353Z,99.99
2018-05-16T03:02:06.340Z,99.99
2018-05-16T03:03:06.321Z,99.99
2018-05-16T03:04:06.306Z,99.99
2018-05-16T03:05:06.294Z,99.99
2018-05-16T03:06:06.285Z,99.99
2018-05-16T03:07:06.264Z,99.99
2018-05-16T03:08:06.252Z,99.99
2018-05-16T03:09:06.242Z,99.99
2018-05-16T03:10:06.226Z,99.99
2018-05-16T03:11:06.207Z,99.99
2018-05-16T03:12:06.189Z,99.99
2018-05-16T03:13:06.174Z,99.99
2018-05-16T03:14:06.166Z,99.99
2018-05-16T03:15:06.145Z,99.99
2018-05-16T03:16:06.128Z,99.99
2018-05-16T03:17:06.110Z,99.99
2018-05-16T03:18:06.096Z,99.99
2018-05-16T03:19:06.107Z,99.99
2018-05-16T03:20:06.074Z,99.99
2018-05-16T03:21:06.059Z,99.99
2018-05-16T03:22:06.038Z,99.99
2018-05-16T03:23:06.023Z,99.99
2018-05-16T03:24:06.014Z,99.99
2018-05-16T03:25:05.990Z,99.99
2018-05-16T03:26:05.984Z,99.99
2018-05-16T03:27:05.969Z,99.99
2018-05-16T03:28:05.944Z,99.99
2018-05-16T03:29:05.943Z,99.99
2018-05-16T03:30:05.918Z,99.99
2018-05-16T03:31:05.901Z,99.99
2018-05-16T03:32:05.885Z,99.99
2018-05-16T03:33:05.919Z,99.99
2018-05-16T03:34:05.857Z,99.99
2018-05-16T03:35:05.841Z,99.99
2018-05-16T03:36:05.824Z,99.99
2018-05-16T03:37:05.820Z,99.99
2018-05-16T03:38:05.796Z,99.99
2018-05-16T03:39:05.779Z,99.99
2018-05-16T03:40:05.765Z,99.99
2018-05-16T03:41:05.748Z,99.99
2018-05-16T03:42:05.733Z,99.99
2018-05-16T03:43:05.720Z,99.99
2018-05-16T03:44:05.704Z,99.99
2018-05-16T03:45:05.690Z,99.99
2018-05-16T03:46:05.674Z,99.99
2018-05-16T03:47:05.660Z,99.99
2018-05-16T03:48:05.641Z,99.99
2018-05-16T03:49:05.629Z,99.99
2018-05-16T03:50:05.610Z,99.99
2018-05-16T03:51:05.601Z,99.99
2018-05-16T03:52:05.608Z,99.99
2018-05-16T03:53:05.569Z,99.99
2018-05-16T03:54:05.556Z,99.99
2018-05-16T03:55:05.536Z,99.99
2018-05-16T03:56:05.524Z,99.99
2018-05-16T03:57:05.507Z,99.99
2018-05-16T03:58:05.493Z,99.99
2018-05-16T03:59:05.477Z,99.99
2018-05-16T04:00:05.462Z,99.99
2018-05-16T04:01:05.455Z,99.99
2018-05-16T04:02:05.433Z,99.99
2018-05-16T04:03:05.428Z,99.99
2018-05-16T04:04:05.407Z,99.99
2018-05-16T04:05:05.389Z,99.99
2018-05-16T04:06:05.373Z,99.99
2018-05-16T04:07:05.364Z,99.99
2018-05-16T04:08:05.341Z,99.99
2018-05-16T04:09:05.329Z,99.99
2018-05-16T04:10:05.314Z,99.99
2018-05-16T04:11:05.299Z,99.99
2018-05-16T04:12:05.287Z,99.99
2018-05-16T04:13:05.269Z,99.99
2018-05-16T04:14:05.254Z,99.99
2018-05-16T04:15:05.241Z,99.99
2018-05-16T04:16:05.224Z,99.99
2018-05-16T04:17:05.210Z,99.99
2018-05-16T04:18:05.204Z,99.99
2018-05-16T04:19:05.182Z,99.99
2018-05-16T04:20:05.166Z,99.99
2018-05-16T04:21:05.152Z,99.99
2018-05-16T04:22:05.140Z,99.99
2018-05-16T04:23:05.122Z,99.99
2018-05-16T04:24:05.107Z,99.99
2018-05-16T04:25:05.093Z,99.99
2018-05-16T04:26:05.084Z,99.99
2018-05-16T04:27:05.068Z,99.99
2018-05-16T04:28:05.050Z,99.99
2018-05-16T04:29:05.035Z,99.99
2018-05-16T04:30:05.023Z,99.99
2018-05-16T04:31:05.005Z,99.99
2018-05-16T04:32:04.989Z,99.99
2018-05-16T04:33:04.976Z,99.99
2018-05-16T04:34:04.965Z,99.99
2018-05-16T04:35:04.949Z,99.99
2018-05-16T04:36:04.937Z,99.99
2018-05-16T04:37:04.917Z,99.99
2018-05-16T04:38:04.906Z,99.99
2018-05-16T04:39:04.888Z,99.99
2018-05-16T04:40:04.874Z,99.99
2018-05-16T04:41:04.859Z,99.99
2018-05-16T04:42:04.848Z,99.99
2018-05-16T04:43:04.847Z,99.99
2018-05-16T04:44:04.821Z,99.99
2018-05-16T04:45:04.806Z,99.99
2018-05-16T04:46:04.792Z,99.99
2018-05-16T04:47:04.772Z,99.99
2018-05-16T04:48:04.763Z,99.99
2018-05-16T04:49:04.747Z,99.99
2018-05-16T04:50:04.729Z,99.99
2018-05-16T04:51:04.716Z,99.99
2018-05-16T04:52:04.700Z,99.99
2018-05-16T04:53:04.686Z,99.99
2018-05-16T04:54:04.675Z,99.99
2018-05-16T04:55:04.659Z,99.99
2018-05-16T04:56:04.643Z,99.99
2018-05-16T04:57:04.630Z,99.99
2018-05-16T04:58:04.617Z,99.99
2018-05-16T04:59:04.601Z,99.99
2018-05-16T05:00:04.585Z,99.99
2018-05-16T05:01:04.622Z,99.99
2018-05-16T05:02:04.559Z,99.99
2018-05-16T05:03:04.544Z,99.99
2018-05-16T05:04:04.530Z,99.99
2018-05-16T05:05:04.515Z,99.99
2018-05-16T05:06:04.628Z,99.99
2018-05-16T05:07:04.486Z,99.99
2018-05-16T05:08:04.471Z,99.99
2018-05-16T05:09:04.551Z,99.99
2018-05-16T05:10:04.442Z,99.99
2018-05-16T05:11:04.434Z,99.99
2018-05-16T05:12:04.413Z,99.99
2018-05-16T05:13:04.410Z,99.99
2018-05-16T05:14:04.391Z,99.99
2018-05-16T05:15:04.377Z,99.99
2018-05-16T05:16:04.356Z,99.99
2018-05-16T05:17:04.347Z,99.99
2018-05-16T05:18:04.335Z,99.99
2018-05-16T05:19:04.317Z,99.99
2018-05-16T05:20:04.308Z,99.99
2018-05-16T05:21:04.289Z,99.99
2018-05-16T05:22:04.275Z,99.99
2018-05-16T05:23:04.259Z,99.99
2018-05-16T05:24:04.344Z,99.99
2018-05-16T05:25:04.231Z,99.99
2018-05-16T05:26:04.217Z,99.99
2018-05-16T05:27:04.215Z,99.99
2018-05-16T05:28:04.190Z,99.99
2018-05-16T05:29:04.176Z,99.99
2018-05-16T05:30:04.163Z,99.99
2018-05-16T05:31:04.150Z,99.99
2018-05-16T05:32:04.133Z,99.99
2018-05-16T05:33:04.120Z,99.99
2018-05-16T05:34:04.110Z,99.99
2018-05-16T05:35:04.093Z,99.99
2018-05-16T05:36:04.079Z,99.99
2018-05-16T05:37:04.064Z,99.99
2018-05-16T05:38:04.059Z,99.99
2018-05-16T05:39:04.038Z,99.99
2018-05-16T05:40:04.026Z,99.99
2018-05-16T05:41:04.010Z,99.99
2018-05-16T05:42:03.996Z,99.99
2018-05-16T05:43:03.984Z,99.99
2018-05-16T05:44:03.970Z,99.99
2018-05-16T05:45:03.955Z,99.99
2018-05-16T05:46:03.944Z,99.99
2018-05-16T05:47:03.936Z,99.99
2018-05-16T05:48:03.920Z,99.99
2018-05-16T05:49:03.912Z,99.99
2018-05-16T05:50:03.890Z,99.99
2018-05-16T05:51:03.877Z,99.99
2018-05-16T05:52:03.864Z,99.99
2018-05-16T05:53:03.849Z,99.99
2018-05-16T05:54:03.834Z,99.99
2018-05-16T05:55:03.822Z,99.99
2018-05-16T05:56:03.807Z,99.99
2018-05-16T05:57:03.793Z,99.99
2018-05-16T05:58:03.785Z,99.99
2018-05-16T05:59:03.768Z,99.99
2018-05-16T06:00:03.861Z,99.99
2018-05-16T06:01:03.740Z,99.99
2018-05-16T06:02:03.736Z,99.99
2018-05-16T06:03:03.716Z,99.99
2018-05-16T06:04:03.700Z,99.99
2018-05-16T06:05:03.688Z,99.99
2018-05-16T06:06:03.675Z,99.99
2018-05-16T06:07:03.661Z,99.99
2018-05-16T06:08:03.648Z,99.99
2018-05-16T06:09:03.636Z,99.99
2018-05-16T06:10:03.624Z,99.67
2018-05-16T06:11:03.614Z,99.99
2018-05-16T06:12:03.594Z,99.99
2018-05-16T06:13:03.582Z,99.99
2018-05-16T06:14:03.572Z,99.99
2018-05-16T06:15:03.561Z,98.81
2018-05-16T06:16:03.541Z,99.19
2018-05-16T06:17:03.531Z,99.99
2018-05-16T06:18:03.516Z,99.63
2018-05-16T06:19:03.505Z,99.99
2018-05-16T06:20:03.492Z,99.99
2018-05-16T06:21:03.484Z,99.53
2018-05-16T06:22:03.467Z,99.99
2018-05-16T06:23:03.450Z,99.53
2018-05-16T06:24:03.437Z,98.19
2018-05-16T06:25:03.426Z,98.57
2018-05-16T06:26:03.412Z,99.91
2018-05-16T06:27:03.419Z,99.53
2018-05-16T06:28:03.386Z,99.43
2018-05-16T06:29:03.375Z,98.28
2018-05-16T06:30:03.359Z,98.38
2018-05-16T06:31:03.353Z,99.43
2018-05-16T06:32:03.334Z,98.38
2018-05-16T06:33:03.324Z,98.19
2018-05-16T06:34:03.308Z,98.96
2018-05-16T06:35:03.301Z,97.23
2018-05-16T06:36:03.284Z,97.23
2018-05-16T06:37:03.270Z,98.05
2018-05-16T06:38:03.257Z,98.24
2018-05-16T06:39:03.252Z,96.61
2018-05-16T06:40:03.235Z,95.46
2018-05-16T06:41:03.221Z,94.59
2018-05-16T06:42:03.207Z,94.79
2018-05-16T06:43:03.196Z,96.08
2018-05-16T06:44:03.181Z,96.18
2018-05-16T06:45:03.177Z,96.08
2018-05-16T06:46:03.159Z,94.45
2018-05-16T06:47:03.147Z,94.54
2018-05-16T06:48:03.135Z,94.69
2018-05-16T06:49:03.130Z,94.69
2018-05-16T06:50:03.110Z,95.36
2018-05-16T06:51:03.097Z,95.07
2018-05-16T06:52:03.085Z,93.25
2018-05-16T06:53:03.076Z,94.12
2018-05-16T06:54:03.063Z,92.96
2018-05-16T06:55:03.052Z,92.19
2018-05-16T06:56:03.038Z,92.43
2018-05-16T06:57:03.029Z,93.39
2018-05-16T06:58:03.018Z,93.30
2018-05-16T06:59:03.008Z,93.59
2018-05-16T07:00:02.995Z,93.49
2018-05-16T07:01:02.982Z,91.66
2018-05-16T07:02:02.974Z,91.76
2018-05-16T07:03:02.958Z,93.97
2018-05-16T07:04:02.959Z,94.45
2018-05-16T07:05:02.936Z,92.33
2018-05-16T07:06:02.926Z,91.19
2018-05-16T07:07:02.913Z,90.90
2018-05-16T07:08:02.901Z,90.94
2018-05-16T07:09:02.900Z,88.73
2018-05-16T07:10:02.881Z,88.45
2018-05-16T07:11:02.870Z,90.94
2018-05-16T07:12:02.858Z,89.12
2018-05-16T07:13:02.847Z,88.35
2018-05-16T07:14:02.838Z,89.98
2018-05-16T07:15:02.828Z,90.66
2018-05-16T07:16:02.819Z,89.74
2018-05-16T07:17:02.804Z,90.99
2018-05-16T07:18:02.796Z,89.36
2018-05-16T07:19:02.785Z,89.01
2018-05-16T07:20:02.774Z,89.21
2018-05-16T07:21:02.812Z,88.44
2018-05-16T07:22:02.751Z,87.38
2018-05-16T07:23:02.743Z,86.42
2018-05-16T07:24:02.731Z,86.75
2018-05-16T07:25:02.721Z,86.27
2018-05-16T07:26:02.716Z,85.11
2018-05-16T07:27:02.702Z,84.34
2018-05-16T07:28:02.691Z,85.25
2018-05-16T07:29:02.767Z,85.74
2018-05-16T07:30:02.671Z,84.58
2018-05-16T07:31:02.663Z,85.64
2018-05-16T07:32:02.650Z,82.60
2018-05-16T07:33:02.640Z,82.79
2018-05-16T07:34:02.631Z,81.73
2018-05-16T07:35:02.623Z,82.02
2018-05-16T07:36:02.611Z,82.26
2018-05-16T07:37:02.603Z,78.79
2018-05-16T07:38:02.593Z,79.85
2018-05-16T07:39:02.583Z,79.46
2018-05-16T07:40:02.573Z,78.88
2018-05-16T07:41:02.600Z,77.83
2018-05-16T07:42:02.558Z,78.85
2018-05-16T07:43:02.549Z,77.69
2018-05-16T07:44:02.538Z,79.52
2018-05-16T07:45:02.530Z,80.58
2018-05-16T07:46:02.516Z,81.83
2018-05-16T07:47:02.519Z,79.90
2018-05-16T07:48:02.502Z,80.43
2018-05-16T07:49:02.489Z,78.21
2018-05-16T07:50:02.483Z,77.28
2018-05-16T07:51:02.472Z,77.58
2018-05-16T07:52:02.462Z,77.76
2018-05-16T07:53:02.455Z,76.93
2018-05-16T07:54:02.449Z,76.93
2018-05-16T07:55:02.443Z,74.62
2018-05-16T07:56:02.479Z,74.62
2018-05-16T07:57:02.423Z,75.49
2018-05-16T07:58:02.413Z,74.33
2018-05-16T07:59:02.418Z,73.72
2018-05-16T08:00:02.412Z,76.17
2018-05-16T08:01:02.388Z,74.14
2018-05-16T08:02:02.378Z,73.57
2018-05-16T08:03:02.371Z,74.18
2018-05-16T08:04:02.363Z,74.79
2018-05-16T08:05:02.359Z,72.77
2018-05-16T08:06:02.354Z,71.26
2018-05-16T08:07:02.343Z,72.16
2018-05-16T08:08:02.332Z,71.20
2018-05-16T08:09:02.326Z,69.07
2018-05-16T08:10:02.320Z,69.98
2018-05-16T08:11:02.314Z,69.53
2018-05-16T08:12:02.304Z,67.63
2018-05-16T08:13:02.300Z,67.95
2018-05-16T08:14:02.292Z,67.02
2018-05-16T08:15:02.287Z,64.24
2018-05-16T08:16:02.331Z,63.78
2018-05-16T08:17:02.275Z,60.61
2018-05-16T08:18:02.271Z,61.68
2018-05-16T08:19:02.266Z,62.33
2018-05-16T08:20:02.260Z,61.46
2018-05-16T08:21:02.255Z,60.27
2018-05-16T08:22:02.251Z,61.30
2018-05-16T08:23:02.244Z,62.72
2018-05-16T08:24:02.242Z,63.01
2018-05-16T08:25:02.241Z,63.53
2018-05-16T08:26:02.233Z,62.01
2018-05-16T08:27:02.227Z,62.10
2018-05-16T08:28:02.222Z,63.27
2018-05-16T08:29:02.219Z,63.65
2018-05-16T08:30:02.216Z,61.72
2018-05-16T08:31:02.215Z,60.43
2018-05-16T08:32:02.210Z,60.14
2018-05-16T08:33:02.204Z,62.37
2018-05-16T08:34:02.195Z,63.34
2018-05-16T08:35:02.194Z,59.53
2018-05-16T08:36:02.188Z,61.98
2018-05-16T08:37:02.188Z,60.88
2018-05-16T08:38:02.182Z,63.53
2018-05-16T08:39:02.178Z,62.82
2018-05-16T08:40:02.172Z,61.18
2018-05-16T08:41:02.168Z,60.98
2018-05-16T08:42:02.164Z,61.56
2018-05-16T08:43:02.227Z,61.95
2018-05-16T08:44:02.153Z,60.75
2018-05-16T08:45:02.232Z,62.01
2018-05-16T08:46:02.146Z,63.37
2018-05-16T08:47:02.140Z,63.76
2018-05-16T08:48:02.141Z,64.34
2018-05-16T08:49:02.133Z,62.95
2018-05-16T08:50:02.129Z,64.89
2018-05-16T08:51:02.124Z,64.98
2018-05-16T08:52:02.119Z,66.14
2018-05-16T08:53:02.114Z,65.66
2018-05-16T08:54:02.108Z,64.11
2018-05-16T08:55:02.105Z,64.31
2018-05-16T08:56:02.104Z,64.40
2018-05-16T08:57:02.092Z,63.14
2018-05-16T08:58:02.089Z,64.40
2018-05-16T08:59:02.096Z,60.17
2018-05-16T09:00:02.076Z,61.15
2018-05-16T09:01:02.073Z,57.86
2018-05-16T09:02:02.067Z,60.75
2018-05-16T09:03:02.063Z,61.33
2018-05-16T09:04:02.058Z,64.34
2018-05-16T09:05:02.056Z,61.76
2018-05-16T09:06:02.048Z,62.14
2018-05-16T09:07:02.045Z,63.49
2018-05-16T09:08:02.039Z,61.88
2018-05-16T09:09:02.036Z,62.17
2018-05-16T09:10:02.033Z,61.59
2018-05-16T09:11:02.027Z,60.14
2018-05-16T09:12:02.024Z,59.46
2018-05-16T09:13:02.016Z,58.20
2018-05-16T09:14:02.013Z,59.75
2018-05-16T09:15:02.008Z,59.66
2018-05-16T09:16:02.008Z,59.27
2018-05-16T09:17:02.000Z,58.20
2018-05-16T09:18:01.996Z,58.98
2018-05-16T09:19:01.991Z,58.75
2018-05-16T09:20:01.988Z,58.85
2018-05-16T09:21:01.985Z,60.21
2018-05-16T09:22:01.980Z,59.33
2018-05-16T09:23:02.017Z,60.98
2018-05-16T09:24:01.968Z,61.27
2018-05-16T09:25:01.971Z,59.01
2018-05-16T09:26:01.964Z,61.15
2018-05-16T09:27:01.962Z,62.01
2018-05-16T09:28:01.952Z,62.11
2018-05-16T09:29:01.950Z,60.30
2018-05-16T09:30:01.946Z,60.17
2018-05-16T09:31:01.946Z,60.98
2018-05-16T09:32:01.935Z,62.40
2018-05-16T09:33:01.931Z,59.43
2018-05-16T09:34:01.926Z,59.11
2018-05-16T09:35:01.921Z,60.37
2018-05-16T09:36:01.920Z,61.92
2018-05-16T09:37:01.914Z,59.59
2018-05-16T09:38:01.908Z,60.57
2018-05-16T09:39:01.907Z,60.17
2018-05-16T09:40:01.897Z,60.85
2018-05-16T09:41:01.901Z,59.01
2018-05-16T09:42:01.889Z,60.17
2018-05-16T09:43:01.884Z,60.30
2018-05-16T09:44:01.880Z,59.82
2018-05-16T09:45:01.877Z,59.63
2018-05-16T09:46:01.958Z,61.08
2018-05-16T09:47:01.875Z,60.69
2018-05-16T09:48:01.862Z,60.78
2018-05-16T09:49:01.857Z,60.30
2018-05-16T09:50:01.853Z,59.14
2018-05-16T09:51:01.851Z,58.65
2018-05-16T09:52:01.842Z,58.27
2018-05-16T09:53:01.850Z,58.75
2018-05-16T09:54:01.835Z,58.47
2018-05-16T09:55:01.833Z,58.56
2018-05-16T09:56:01.825Z,57.69
2018-05-16T09:57:01.821Z,57.69
2018-05-16T09:58:01.815Z,58.49
2018-05-16T09:59:01.813Z,58.01
2018-05-16T10:00:01.810Z,58.11
2018-05-16T10:01:01.802Z,59.36
2018-05-16T10:02:01.803Z,56.07
2018-05-16T10:03:01.794Z,58.81
2018-05-16T10:04:01.797Z,56.10
2018-05-16T10:05:01.786Z,57.26
2018-05-16T10:06:01.780Z,57.00
2018-05-16T10:07:01.781Z,55.54
2018-05-16T10:08:01.772Z,56.13
2018-05-16T10:09:01.768Z,55.93
2018-05-16T10:10:01.764Z,53.02
2018-05-16T10:11:01.761Z,50.70
2018-05-16T10:12:01.757Z,49.63
2018-05-16T10:13:01.753Z,52.44
2018-05-16T10:14:01.755Z,52.08
2018-05-16T10:15:01.758Z,52.37
2018-05-16T10:16:01.744Z,48.90
2018-05-16T10:17:01.742Z,52.23
2018-05-16T10:18:01.739Z,50.68
2018-05-16T10:19:01.741Z,48.54
2018-05-16T10:20:01.733Z,49.71
2018-05-16T10:21:01.732Z,49.80
2018-05-16T10:22:01.728Z,47.74
2018-05-16T10:23:01.725Z,49.87
2018-05-16T10:24:01.720Z,50.58
2018-05-16T10:25:01.719Z,51.75
2018-05-16T10:26:01.719Z,51.18
2018-05-16T10:27:01.716Z,49.07
2018-05-16T10:28:01.711Z,48.68
2018-05-16T10:29:01.713Z,47.37
2018-05-16T10:30:01.710Z,48.54
2018-05-16T10:31:01.705Z,47.96
2018-05-16T10:32:01.703Z,46.69
2018-05-16T10:33:01.701Z,47.25
2018-05-16T10:34:01.701Z,47.64
2018-05-16T10:35:01.699Z,45.69
2018-05-16T10:36:01.696Z,44.92
2018-05-16T10:37:01.695Z,47.64
2018-05-16T10:38:01.693Z,47.05
2018-05-16T10:39:01.701Z,44.53
2018-05-16T10:40:01.691Z,42.58
2018-05-16T10:41:01.687Z,45.40
2018-05-16T10:42:01.689Z,43.82
2018-05-16T10:43:01.687Z,45.57
2018-05-16T10:44:01.694Z,45.55
2018-05-16T10:45:01.682Z,45.55
2018-05-16T10:46:01.680Z,45.72
2018-05-16T10:47:01.683Z,48.15
2018-05-16T10:48:01.677Z,48.93
2018-05-16T10:49:01.676Z,48.75
2018-05-16T10:50:01.674Z,46.04
2018-05-16T10:51:01.678Z,47.59
2018-05-16T10:52:01.669Z,45.67
2018-05-16T10:53:01.668Z,45.87
2018-05-16T10:54:01.666Z,45.09
2018-05-16T10:55:01.666Z,47.03
2018-05-16T10:56:01.661Z,45.57
2018-05-16T10:57:01.660Z,43.95
2018-05-16T10:58:01.664Z,45.79
2018-05-16T10:59:01.659Z,45.98
2018-05-16T11:00:01.657Z,45.14
2018-05-16T11:01:01.655Z,44.35
2018-05-16T11:02:01.653Z,43.96
2018-05-16T11:03:01.653Z,43.46
2018-05-16T11:04:01.658Z,43.55
2018-05-16T11:05:01.652Z,44.43
2018-05-16T11:06:01.647Z,45.77
2018-05-16T11:07:01.646Z,44.53
2018-05-16T11:08:01.643Z,45.87
2018-05-16T11:09:01.643Z,45.67
2018-05-16T11:10:01.640Z,42.78
2018-05-16T11:11:01.640Z,43.48
2018-05-16T11:12:01.637Z,44.67
2018-05-16T11:13:01.636Z,42.63
2018-05-16T11:14:01.645Z,44.69
2018-05-16T11:15:01.634Z,42.28
2018-05-16T11:16:01.638Z,41.73
2018-05-16T11:17:01.695Z,39.41
2018-05-16T11:18:01.631Z,37.96
2018-05-16T11:19:01.630Z,36.04
2018-05-16T11:20:01.628Z,37.91
2018-05-16T11:21:01.627Z,35.45
2018-05-16T11:22:01.629Z,34.86
2018-05-16T11:23:01.632Z,38.16
2018-05-16T11:24:01.626Z,38.45
2018-05-16T11:25:01.642Z,39.61
2018-05-16T11:26:01.629Z,39.14
2018-05-16T11:27:01.625Z,39.41
2018-05-16T11:28:01.628Z,39.41
2018-05-16T11:29:01.629Z,38.63
2018-05-16T11:30:01.624Z,36.47
2018-05-16T11:31:01.629Z,37.93
2018-05-16T11:32:01.624Z,38.22
2018-05-16T11:33:01.620Z,37.63
2018-05-16T11:34:01.624Z,37.52
2018-05-16T11:35:01.628Z,38.38
2018-05-16T11:36:01.620Z,40.42
2018-05-16T11:37:01.624Z,40.13
2018-05-16T11:38:01.622Z,37.52
2018-05-16T11:39:01.618Z,37.12
2018-05-16T11:40:01.619Z,37.33
2018-05-16T11:41:01.623Z,38.49
2018-05-16T11:42:01.620Z,39.39
2018-05-16T11:43:01.628Z,37.95
2018-05-16T11:44:01.619Z,39.65
2018-05-16T11:45:01.620Z,37.83
2018-05-16T11:46:01.618Z,37.87
2018-05-16T11:47:01.615Z,35.83
2018-05-16T11:48:01.619Z,34.93
2018-05-16T11:49:01.614Z,35.22
2018-05-16T11:50:01.618Z,33.82
2018-05-16T11:51:01.616Z,35.56
2018-05-16T11:52:01.624Z,36.91
2018-05-16T11:53:01.628Z,36.21
2018-05-16T11:54:01.624Z,33.83
2018-05-16T11:55:01.618Z,36.19
2018-05-16T11:56:01.617Z,36.68
2018-05-16T11:57:01.617Z,37.73
2018-05-16T11:58:01.617Z,39.22
2018-05-16T11:59:01.622Z,38.84
2018-05-16T12:00:01.620Z,34.97
2018-05-16T12:01:01.617Z,34.09
2018-05-16T12:02:01.615Z,34.19
2018-05-16T12:03:01.621Z,32.26
2018-05-16T12:04:01.618Z,34.13
2018-05-16T12:05:01.625Z,32.89
2018-05-16T12:06:01.621Z,31.04
2018-05-16T12:07:01.629Z,28.91
2018-05-16T12:08:01.623Z,29.70
2018-05-16T12:09:01.661Z,26.86
2018-05-16T12:10:01.625Z,25.98
2018-05-16T12:11:01.622Z,28.74
2018-05-16T12:12:01.634Z,26.97
2018-05-16T12:13:01.630Z,29.16
2018-05-16T12:14:01.629Z,29.53
2018-05-16T12:15:01.726Z,24.42
2018-05-16T12:16:01.631Z,23.84
2018-05-16T12:17:01.689Z,26.70
2018-05-16T12:18:01.634Z,29.14
2018-05-16T12:19:01.636Z,26.48
2018-05-16T12:20:01.637Z,28.72
2018-05-16T12:21:01.666Z,25.88
2018-05-16T12:22:01.643Z,29.49
2018-05-16T12:23:01.655Z,29.21
2018-05-16T12:24:01.645Z,30.00
2018-05-16T12:25:01.646Z,28.82
2018-05-16T12:26:01.648Z,29.13
2018-05-16T12:27:01.652Z,28.65
2018-05-16T12:28:01.648Z,29.45
2018-05-16T12:29:01.699Z,28.06
2018-05-16T12:30:01.655Z,27.97
2018-05-16T12:31:01.661Z,28.44
2018-05-16T12:32:01.658Z,30.37
2018-05-16T12:33:01.658Z,31.26
2018-05-16T12:34:01.659Z,29.28
2018-05-16T12:35:01.661Z,30.47
2018-05-16T12:36:01.665Z,28.01
2018-05-16T12:37:01.663Z,28.91
2018-05-16T12:38:01.677Z,29.69
2018-05-16T12:39:01.668Z,29.39
2018-05-16T12:40:01.668Z,31.86
2018-05-16T12:41:01.670Z,30.96
2018-05-16T12:42:01.674Z,30.26
2018-05-16T12:43:01.673Z,31.45
2018-05-16T12:44:01.676Z,29.98
2018-05-16T12:45:01.678Z,30.00
2018-05-16T12:46:01.677Z,31.06
2018-05-16T12:47:01.681Z,30.55
2018-05-16T12:48:01.729Z,29.46
2018-05-16T12:49:01.680Z,31.31
2018-05-16T12:50:01.684Z,31.31
2018-05-16T12:51:01.683Z,32.26
2018-05-16T12:52:01.682Z,32.16